createdAt,value
2023-01-24T00:00:48.280Z,7.60
2023-01-24T00:03:15.267Z,7.40
2023-01-24T00:05:44.194Z,7.50
2023-01-24T00:08:14.060Z,7.50
2023-01-24T00:10:41.871Z,7.40
2023-01-24T00:13:11.817Z,7.20
2023-01-24T00:15:38.744Z,7.30
2023-01-24T00:18:05.606Z,7.30
2023-01-24T00:20:33.105Z,7.20
2023-01-24T00:23:00.049Z,7.20
2023-01-24T00:25:26.920Z,7.20
2023-01-24T00:27:53.711Z,7.10
2023-01-24T00:30:20.611Z,7.20
2023-01-24T00:32:47.464Z,7.10
2023-01-24T00:35:14.390Z,7.00
2023-01-24T00:37:42.032Z,6.70
2023-01-24T00:40:10.307Z,6.90
2023-01-24T00:42:37.165Z,7.00
2023-01-24T00:45:04.308Z,6.90
2023-01-24T00:47:31.117Z,6.70
2023-01-24T00:49:57.854Z,7.00
2023-01-24T00:52:24.861Z,6.90
2023-01-24T00:54:52.157Z,6.80
2023-01-24T00:57:18.940Z,6.70
2023-01-24T00:59:45.804Z,6.80
2023-01-24T01:02:12.607Z,6.80
2023-01-24T01:04:39.432Z,6.90
2023-01-24T01:07:06.345Z,6.80
2023-01-24T01:09:33.357Z,6.60
2023-01-24T01:12:00.187Z,6.60
2023-01-24T01:14:27.021Z,6.70
2023-01-24T01:16:54.112Z,6.60
2023-01-24T01:19:21.056Z,6.80
2023-01-24T01:21:48.527Z,6.70
2023-01-24T01:24:15.414Z,6.70
2023-01-24T01:26:42.335Z,6.60
2023-01-24T01:29:09.226Z,6.60
2023-01-24T01:31:37.200Z,6.50
2023-01-24T01:34:04.215Z,6.50
2023-01-24T01:36:30.983Z,6.50
2023-01-24T01:38:57.927Z,6.40
2023-01-24T01:41:25.408Z,6.60
2023-01-24T01:44:11.705Z,6.60
2023-01-24T01:46:44.480Z,6.60
2023-01-24T01:49:20.873Z,6.40
2023-01-24T01:51:51.708Z,6.50
2023-01-24T01:54:26.794Z,6.30
2023-01-24T01:57:00.428Z,6.30
2023-01-24T01:59:32.339Z,6.40
2023-01-24T02:02:02.034Z,6.30
2023-01-24T02:04:33.017Z,6.40
2023-01-24T02:07:02.209Z,6.10
2023-01-24T02:09:33.763Z,6.40
2023-01-24T02:12:05.323Z,6.40
2023-01-24T02:14:51.942Z,6.40
2023-01-24T02:17:20.322Z,6.30
2023-01-24T02:20:08.368Z,6.30
2023-01-24T02:23:04.094Z,6.10
2023-01-24T02:25:34.246Z,6.30
2023-01-24T02:28:03.509Z,6.20
2023-01-24T02:30:30.446Z,6.20
2023-01-24T02:32:57.569Z,6.10
2023-01-24T02:35:31.024Z,6.30
2023-01-24T02:38:00.294Z,6.10
2023-01-24T02:40:30.370Z,6.30
2023-01-24T02:43:01.481Z,6.20
2023-01-24T02:45:31.575Z,6.00
2023-01-24T02:47:58.869Z,6.10
2023-01-24T02:50:28.671Z,6.20
2023-01-24T02:53:14.638Z,6.10
2023-01-24T02:56:00.274Z,6.10
2023-01-24T02:58:28.643Z,6.00
2023-01-24T03:00:55.476Z,6.20
2023-01-24T03:03:22.343Z,6.00
2023-01-24T03:05:58.266Z,6.10
2023-01-24T03:08:27.192Z,6.10
2023-01-24T03:10:54.579Z,6.10
2023-01-24T03:13:40.767Z,5.80
2023-01-24T03:16:26.997Z,6.10
2023-01-24T03:19:12.948Z,5.90
2023-01-24T03:21:58.324Z,6.00
2023-01-24T03:24:44.113Z,5.90
2023-01-24T03:27:29.898Z,5.90
2023-01-24T03:30:15.293Z,5.80
2023-01-24T03:33:01.015Z,5.90
2023-01-24T03:35:28.036Z,5.90
2023-01-24T03:38:13.655Z,5.70
2023-01-24T03:40:40.480Z,5.80
2023-01-24T03:43:07.696Z,5.80
2023-01-24T03:45:36.994Z,5.90
2023-01-24T03:48:15.562Z,5.70
2023-01-24T03:51:02.926Z,5.70
2023-01-24T03:53:31.955Z,5.70
2023-01-24T03:56:01.490Z,5.70
2023-01-24T03:58:30.342Z,5.70
2023-01-24T04:00:57.537Z,5.70
2023-01-24T04:03:24.988Z,5.80
2023-01-24T04:05:52.147Z,5.60
2023-01-24T04:08:19.515Z,5.80
2023-01-24T04:10:46.412Z,5.70
2023-01-24T04:13:14.037Z,5.80
2023-01-24T04:15:41.007Z,5.70
2023-01-24T04:18:08.149Z,5.60
2023-01-24T04:20:37.358Z,5.40
2023-01-24T04:23:06.345Z,5.70
2023-01-24T04:25:33.725Z,5.80
2023-01-24T04:28:01.041Z,5.60
2023-01-24T04:30:27.895Z,5.60
2023-01-24T04:32:54.715Z,5.50
2023-01-24T04:35:26.821Z,5.50
2023-01-24T04:37:54.143Z,5.60
2023-01-24T04:40:21.052Z,5.50
2023-01-24T04:42:47.847Z,5.40
2023-01-24T04:45:14.757Z,5.50
2023-01-24T04:47:41.553Z,5.40
2023-01-24T04:50:09.155Z,5.60
2023-01-24T04:52:36.051Z,5.50
2023-01-24T04:55:03.015Z,5.70
2023-01-24T04:57:29.778Z,5.60
2023-01-24T04:59:56.540Z,5.40
2023-01-24T05:02:23.316Z,5.40
2023-01-24T05:04:50.128Z,5.60
2023-01-24T05:07:16.954Z,5.50
2023-01-24T05:09:43.835Z,5.50
2023-01-24T05:12:10.566Z,5.40
2023-01-24T05:14:37.742Z,5.50
2023-01-24T05:17:04.927Z,5.60
2023-01-24T05:19:31.752Z,5.60
2023-01-24T05:21:58.688Z,5.30
2023-01-24T05:24:25.555Z,5.40
2023-01-24T05:26:52.390Z,5.60
2023-01-24T05:29:19.201Z,5.60
2023-01-24T05:31:46.016Z,5.40
2023-01-24T05:34:12.909Z,5.50
2023-01-24T05:36:39.759Z,5.60
2023-01-24T05:39:06.714Z,5.40
2023-01-24T05:41:33.547Z,5.30
2023-01-24T05:44:01.229Z,5.50
2023-01-24T05:46:29.529Z,5.50
2023-01-24T05:48:56.660Z,5.50
2023-01-24T05:51:23.427Z,5.50
2023-01-24T05:53:50.497Z,5.50
2023-01-24T05:56:19.702Z,5.50
2023-01-24T05:58:47.865Z,5.50
2023-01-24T06:01:20.698Z,5.40
2023-01-24T06:03:51.932Z,5.40
2023-01-24T06:06:21.159Z,5.40
2023-01-24T06:08:48.587Z,5.20
2023-01-24T06:11:20.921Z,5.40
2023-01-24T06:13:49.020Z,5.40
2023-01-24T06:16:18.491Z,5.30
2023-01-24T06:18:46.241Z,5.40
2023-01-24T06:21:37.767Z,5.20
2023-01-24T06:24:06.327Z,5.20
2023-01-24T06:26:33.757Z,5.20
2023-01-24T06:29:01.180Z,5.40
2023-01-24T06:31:53.178Z,5.40
2023-01-24T06:34:32.231Z,5.40
2023-01-24T06:37:15.599Z,5.50
2023-01-24T06:39:51.041Z,5.40
2023-01-24T06:42:20.257Z,5.40
2023-01-24T06:44:47.753Z,5.20
2023-01-24T06:47:15.518Z,5.50
2023-01-24T06:49:43.149Z,5.30
2023-01-24T06:52:10.485Z,5.40
2023-01-24T06:54:37.503Z,5.40
2023-01-24T06:57:04.798Z,5.30
2023-01-24T06:59:31.834Z,5.30
2023-01-24T07:01:58.802Z,5.50
2023-01-24T07:04:25.758Z,5.40
2023-01-24T07:06:55.325Z,5.40
2023-01-24T07:09:23.245Z,5.30
2023-01-24T07:11:56.007Z,5.50
2023-01-24T07:14:22.994Z,5.60
2023-01-24T07:16:51.826Z,5.40
2023-01-24T07:19:22.882Z,5.50
2023-01-24T07:21:50.723Z,5.50
2023-01-24T07:24:23.771Z,5.40
2023-01-24T07:26:52.158Z,5.70
2023-01-24T07:29:19.809Z,5.70
2023-01-24T07:31:48.817Z,5.60
2023-01-24T07:34:20.060Z,5.50
2023-01-24T07:36:47.819Z,5.60
2023-01-24T07:39:15.854Z,5.90
2023-01-24T07:41:46.637Z,6.00
2023-01-24T07:44:14.856Z,5.90
2023-01-24T07:46:41.910Z,5.90
2023-01-24T07:49:09.062Z,5.70
2023-01-24T07:51:36.199Z,6.00
2023-01-24T07:54:04.030Z,5.80
2023-01-24T07:56:30.991Z,6.10
2023-01-24T07:58:58.387Z,6.00
2023-01-24T08:01:26.166Z,6.10
2023-01-24T08:03:57.765Z,6.20
2023-01-24T08:06:25.333Z,6.20
2023-01-24T08:08:52.713Z,6.20
2023-01-24T08:11:19.871Z,6.40
2023-01-24T08:13:47.180Z,6.30
2023-01-24T08:16:14.666Z,6.40
2023-01-24T08:18:45.461Z,6.50
2023-01-24T08:21:14.463Z,6.60
2023-01-24T08:23:41.501Z,6.60
2023-01-24T08:26:08.517Z,6.60
2023-01-24T08:28:36.654Z,6.90
2023-01-24T08:31:03.654Z,6.70
2023-01-24T08:33:33.052Z,6.90
2023-01-24T08:36:00.736Z,7.10
2023-01-24T08:38:27.669Z,7.00
2023-01-24T08:40:54.516Z,7.10
2023-01-24T08:43:21.416Z,7.20
2023-01-24T08:45:48.564Z,7.30
2023-01-24T08:48:15.457Z,7.40
2023-01-24T08:50:44.251Z,7.40
2023-01-24T08:53:11.999Z,7.60
2023-01-24T08:55:38.835Z,7.60
2023-01-24T08:58:06.108Z,7.80
2023-01-24T09:00:33.499Z,7.90
2023-01-24T09:03:02.002Z,8.00
2023-01-24T09:05:30.502Z,8.00
2023-01-24T09:07:58.213Z,8.00
2023-01-24T09:10:25.186Z,8.10
2023-01-24T09:12:52.254Z,8.20
2023-01-24T09:15:19.363Z,8.40
2023-01-24T09:17:46.398Z,8.40
2023-01-24T09:20:13.314Z,8.60
2023-01-24T09:22:40.445Z,8.70
2023-01-24T09:25:09.289Z,8.90
2023-01-24T09:27:37.346Z,9.20
2023-01-24T09:30:06.915Z,9.40
2023-01-24T09:32:34.225Z,9.50
2023-01-24T09:35:01.127Z,9.60
2023-01-24T09:37:28.152Z,9.90
2023-01-24T09:39:57.140Z,10.00
2023-01-24T09:42:40.895Z,10.00
2023-01-24T09:45:19.218Z,10.10
2023-01-24T09:48:00.009Z,10.20
2023-01-24T09:50:30.672Z,10.30
2023-01-24T09:52:58.896Z,10.40
2023-01-24T09:55:42.573Z,10.40
2023-01-24T09:58:32.948Z,10.50
2023-01-24T10:01:09.887Z,10.60
2023-01-24T10:03:38.873Z,10.60
2023-01-24T10:06:24.521Z,10.60
2023-01-24T10:09:02.450Z,10.60
2023-01-24T10:12:07.782Z,10.80
2023-01-24T10:15:01.222Z,10.90
2023-01-24T10:17:41.302Z,10.90
2023-01-24T10:20:32.875Z,11.00
2023-01-24T10:23:08.876Z,11.20
2023-01-24T10:25:45.210Z,11.10
2023-01-24T10:28:25.391Z,11.20
2023-01-24T10:31:01.808Z,11.20
2023-01-24T10:33:35.314Z,11.20
2023-01-24T10:36:11.177Z,11.20
2023-01-24T10:38:38.377Z,11.20
2023-01-24T10:41:26.623Z,11.30
2023-01-24T10:44:28.318Z,11.50
2023-01-24T10:47:33.290Z,11.50
2023-01-24T10:50:07.735Z,11.50
2023-01-24T10:52:35.455Z,11.50
2023-01-24T10:55:10.232Z,11.50
2023-01-24T10:57:41.290Z,11.60
2023-01-24T11:00:40.560Z,11.60
2023-01-24T11:03:25.320Z,11.60
2023-01-24T11:05:54.783Z,11.70
2023-01-24T11:08:26.782Z,11.60
2023-01-24T11:11:01.133Z,11.70
2023-01-24T11:13:38.320Z,11.80
2023-01-24T11:16:15.985Z,11.70
2023-01-24T11:18:58.032Z,11.80
2023-01-24T11:21:25.239Z,12.00
2023-01-24T11:24:07.096Z,12.00
2023-01-24T11:26:38.633Z,12.10
2023-01-24T11:29:16.172Z,12.20
2023-01-24T11:31:55.975Z,12.10
2023-01-24T11:34:56.107Z,12.20
2023-01-24T11:38:21.601Z,12.00
2023-01-24T11:41:03.545Z,12.30
2023-01-24T11:43:45.526Z,12.40
2023-01-24T11:46:23.957Z,12.50
2023-01-24T11:49:22.556Z,12.40
2023-01-24T11:52:02.112Z,12.60
2023-01-24T11:54:59.343Z,12.70
2023-01-24T11:57:48.737Z,12.70
2023-01-24T12:00:37.391Z,12.80
2023-01-24T12:03:26.107Z,12.80
2023-01-24T12:06:05.983Z,12.90
2023-01-24T12:08:52.184Z,12.90
2023-01-24T12:11:41.535Z,12.90
2023-01-24T12:14:52.207Z,13.00
2023-01-24T12:17:44.452Z,12.90
2023-01-24T12:20:37.465Z,12.90
2023-01-24T12:23:14.916Z,13.00
2023-01-24T12:25:45.622Z,13.10
2023-01-24T12:28:39.803Z,13.10
2023-01-24T12:31:08.708Z,13.20
2023-01-24T12:33:39.727Z,13.30
2023-01-24T12:36:41.710Z,13.30
2023-01-24T12:39:17.838Z,13.40
2023-01-24T12:41:52.192Z,13.30
2023-01-24T12:44:46.421Z,13.20
2023-01-24T12:47:41.461Z,13.30
2023-01-24T12:50:45.353Z,13.20
2023-01-24T12:53:35.366Z,13.30
2023-01-24T12:56:14.909Z,13.40
2023-01-24T12:58:48.387Z,13.30
2023-01-24T13:01:28.356Z,13.30
2023-01-24T13:04:38.022Z,13.30
2023-01-24T13:07:33.297Z,13.40
2023-01-24T13:10:07.403Z,13.40
2023-01-24T13:12:34.577Z,13.40
2023-01-24T13:15:07.975Z,13.20
2023-01-24T13:18:05.043Z,13.40
2023-01-24T13:21:03.719Z,13.30
2023-01-24T13:23:46.761Z,13.30
2023-01-24T13:26:32.544Z,13.20
2023-01-24T13:29:30.533Z,13.20
2023-01-24T13:32:09.813Z,13.10
2023-01-24T13:34:57.310Z,13.20
2023-01-24T13:37:25.621Z,13.10
2023-01-24T13:40:14.401Z,13.10
2023-01-24T13:42:41.541Z,13.00
2023-01-24T13:45:27.397Z,13.00
2023-01-24T13:47:55.431Z,13.00
2023-01-24T13:50:34.929Z,13.00
2023-01-24T13:53:03.350Z,13.00
2023-01-24T13:55:31.108Z,13.10
2023-01-24T13:58:14.013Z,13.10
2023-01-24T14:00:52.870Z,13.10
2023-01-24T14:03:29.069Z,13.10
2023-01-24T14:06:23.649Z,13.10
2023-01-24T14:08:58.792Z,13.10
2023-01-24T14:11:36.517Z,13.00
2023-01-24T14:14:30.930Z,13.00
2023-01-24T14:17:04.148Z,13.10
2023-01-24T14:19:38.080Z,13.00
2023-01-24T14:22:23.074Z,13.00
2023-01-24T14:25:21.819Z,12.90
2023-01-24T14:28:14.361Z,13.00
2023-01-24T14:30:46.595Z,12.90
2023-01-24T14:33:19.682Z,12.90
2023-01-24T14:36:16.587Z,12.80
2023-01-24T14:38:44.557Z,12.90
2023-01-24T14:41:23.187Z,12.70
2023-01-24T14:43:51.095Z,12.60
2023-01-24T14:46:24.076Z,12.60
2023-01-24T14:48:51.731Z,12.60
2023-01-24T14:51:23.266Z,12.50
2023-01-24T14:53:53.071Z,12.60
2023-01-24T14:56:20.995Z,12.50
2023-01-24T14:58:48.269Z,12.40
2023-01-24T15:01:35.508Z,12.30
2023-01-24T15:04:05.456Z,12.30
2023-01-24T15:06:34.244Z,12.30
2023-01-24T15:09:02.996Z,12.20
2023-01-24T15:11:37.284Z,12.10
2023-01-24T15:14:07.717Z,12.10
2023-01-24T15:16:40.420Z,12.10
2023-01-24T15:19:23.851Z,12.10
2023-01-24T15:21:52.562Z,12.10
2023-01-24T15:24:28.563Z,12.10
2023-01-24T15:26:57.286Z,11.90
2023-01-24T15:29:42.276Z,11.90
2023-01-24T15:32:27.388Z,11.90
2023-01-24T15:35:28.903Z,11.90
2023-01-24T15:38:20.454Z,11.90
2023-01-24T15:40:52.035Z,11.80
2023-01-24T15:43:48.943Z,11.90
2023-01-24T15:46:48.417Z,11.80
2023-01-24T15:49:33.717Z,11.70
2023-01-24T15:52:13.298Z,11.60
2023-01-24T15:54:44.136Z,11.50
2023-01-24T15:57:24.823Z,11.50
2023-01-24T15:59:55.897Z,11.40
2023-01-24T16:02:24.055Z,11.50
2023-01-24T16:04:51.250Z,11.40
2023-01-24T16:07:19.711Z,11.40
2023-01-24T16:09:49.422Z,11.30
2023-01-24T16:12:19.201Z,11.30
2023-01-24T16:15:07.504Z,11.30
2023-01-24T16:17:36.222Z,11.20
2023-01-24T16:20:06.647Z,11.10
2023-01-24T16:22:35.263Z,11.00
2023-01-24T16:25:02.190Z,11.10
2023-01-24T16:27:32.623Z,11.00
2023-01-24T16:29:59.612Z,11.00
2023-01-24T16:32:28.028Z,10.90
2023-01-24T16:34:54.926Z,10.90
2023-01-24T16:37:23.510Z,10.80
2023-01-24T16:39:50.654Z,10.90
2023-01-24T16:42:19.205Z,10.80
2023-01-24T16:45:17.173Z,10.80
2023-01-24T16:47:45.618Z,10.80
2023-01-24T16:50:13.804Z,10.70
2023-01-24T16:52:41.146Z,10.60
2023-01-24T16:55:09.203Z,10.70
2023-01-24T16:57:36.110Z,10.70
2023-01-24T17:00:05.813Z,10.70
2023-01-24T17:02:33.177Z,10.60
2023-01-24T17:05:01.290Z,10.60
2023-01-24T17:07:30.097Z,10.60
2023-01-24T17:09:57.858Z,10.70
2023-01-24T17:12:24.727Z,10.50
2023-01-24T17:14:51.582Z,10.50
2023-01-24T17:17:18.447Z,10.60
2023-01-24T17:19:45.523Z,10.50
2023-01-24T17:22:12.649Z,10.40
2023-01-24T17:24:39.442Z,10.40
2023-01-24T17:27:06.232Z,10.40
2023-01-24T17:29:33.040Z,10.50
2023-01-24T17:32:00.000Z,10.40
2023-01-24T17:34:27.921Z,10.40
2023-01-24T17:36:54.928Z,10.40
2023-01-24T17:39:21.834Z,10.50
2023-01-24T17:41:48.671Z,10.40
2023-01-24T17:44:17.453Z,10.40
2023-01-24T17:46:44.807Z,10.40
2023-01-24T17:49:12.010Z,10.40
2023-01-24T17:51:38.953Z,10.30
2023-01-24T17:54:06.519Z,10.40
2023-01-24T17:56:33.678Z,10.30
2023-01-24T17:59:01.031Z,10.20
2023-01-24T18:01:28.293Z,10.30
2023-01-24T18:03:55.897Z,10.20
2023-01-24T18:06:22.961Z,10.20
2023-01-24T18:08:50.076Z,10.30
2023-01-24T18:11:19.461Z,10.30
2023-01-24T18:13:46.942Z,10.30
2023-01-24T18:16:17.497Z,10.30
2023-01-24T18:18:44.677Z,10.30
2023-01-24T18:21:16.874Z,10.30
2023-01-24T18:23:43.958Z,10.20
2023-01-24T18:26:13.113Z,10.30
2023-01-24T18:28:39.950Z,10.20
2023-01-24T18:31:11.175Z,10.10
2023-01-24T18:33:39.108Z,10.30
2023-01-24T18:36:22.911Z,10.30
2023-01-24T18:38:50.477Z,10.20
2023-01-24T18:41:17.870Z,10.30
2023-01-24T18:43:44.776Z,10.30
2023-01-24T18:46:13.618Z,10.20
2023-01-24T18:48:42.855Z,10.20
2023-01-24T18:51:15.279Z,10.20
2023-01-24T18:53:42.933Z,10.20
2023-01-24T18:56:10.520Z,10.20
2023-01-24T18:58:38.953Z,10.20
2023-01-24T19:01:25.538Z,10.20
2023-01-24T19:03:52.802Z,10.30
2023-01-24T19:06:34.240Z,10.30
2023-01-24T19:09:03.999Z,10.30
2023-01-24T19:11:33.985Z,10.30
2023-01-24T19:14:03.374Z,10.20
2023-01-24T19:16:31.284Z,10.30
2023-01-24T19:18:58.369Z,10.20
2023-01-24T19:21:30.711Z,10.20
2023-01-24T19:23:59.264Z,10.20
2023-01-24T19:26:26.309Z,10.20
2023-01-24T19:29:00.452Z,10.30
2023-01-24T19:31:28.138Z,10.20
2023-01-24T19:33:56.211Z,10.20
2023-01-24T19:36:24.345Z,10.20
2023-01-24T19:38:56.304Z,10.20
2023-01-24T19:41:25.772Z,10.30
2023-01-24T19:44:21.315Z,10.30
2023-01-24T19:46:40.507Z,10.30
2023-01-24T19:49:07.450Z,10.30
2023-01-24T19:51:34.424Z,10.30
2023-01-24T19:54:01.515Z,10.30
2023-01-24T19:56:28.387Z,10.40
2023-01-24T19:58:56.870Z,10.40
2023-01-24T20:01:24.688Z,10.30
2023-01-24T20:03:53.839Z,10.40
2023-01-24T20:06:21.876Z,10.30
2023-01-24T20:08:54.442Z,10.50
2023-01-24T20:11:23.225Z,10.50
2023-01-24T20:13:50.938Z,10.60
2023-01-24T20:16:24.066Z,10.60
2023-01-24T20:18:58.244Z,10.60
2023-01-24T20:21:27.822Z,10.60
2023-01-24T20:23:59.589Z,10.60
2023-01-24T20:26:28.241Z,10.80
2023-01-24T20:28:55.536Z,10.80
2023-01-24T20:31:26.816Z,10.90
2023-01-24T20:33:55.063Z,11.00
2023-01-24T20:48:15.609Z,10.90
2023-01-24T20:50:42.433Z,12.10
2023-01-24T20:53:09.331Z,11.90
2023-01-24T20:55:36.153Z,11.50
2023-01-24T20:58:02.953Z,11.50
2023-01-24T21:00:30.116Z,11.30
2023-01-24T21:02:58.951Z,11.30
2023-01-24T21:05:25.955Z,11.20
2023-01-24T21:07:52.821Z,11.10
2023-01-24T21:10:20.620Z,10.90
2023-01-24T21:12:47.461Z,10.90
2023-01-24T21:15:15.475Z,10.90
2023-01-24T21:17:42.336Z,10.80
2023-01-24T21:20:12.365Z,10.80
2023-01-24T21:22:39.184Z,10.80
2023-01-24T21:25:06.772Z,10.70
2023-01-24T21:27:34.040Z,10.80
2023-01-24T21:30:00.870Z,10.70
2023-01-24T21:32:27.732Z,10.70
2023-01-24T21:34:54.921Z,10.70
2023-01-24T21:37:28.470Z,10.70
2023-01-24T21:39:55.813Z,10.70
2023-01-24T21:42:22.649Z,10.70
2023-01-24T21:44:49.448Z,10.70
2023-01-24T21:47:18.222Z,10.70
2023-01-24T21:49:45.708Z,10.70
2023-01-24T21:52:13.523Z,10.70
2023-01-24T21:54:40.416Z,10.70
2023-01-24T21:57:32.029Z,10.70
2023-01-24T22:00:08.492Z,10.70
2023-01-24T22:02:35.778Z,10.70
2023-01-24T22:05:02.849Z,10.70
2023-01-24T22:07:31.216Z,10.70
2023-01-24T22:09:59.915Z,10.70
2023-01-24T22:12:28.204Z,10.70
2023-01-24T22:14:55.605Z,10.60
2023-01-24T22:17:24.186Z,10.70
2023-01-24T22:19:54.111Z,10.70
2023-01-24T22:22:53.359Z,10.70
2023-01-24T22:25:20.262Z,10.80
2023-01-24T22:27:47.467Z,10.70
2023-01-24T22:30:14.471Z,10.70
2023-01-24T22:32:41.743Z,10.70
2023-01-24T22:35:14.239Z,10.80
2023-01-24T22:37:43.871Z,10.80
2023-01-24T22:40:11.358Z,10.70
2023-01-24T22:42:38.192Z,10.70
2023-01-24T22:45:06.234Z,10.70
2023-01-24T22:47:33.498Z,10.60
2023-01-24T22:50:00.411Z,10.60
2023-01-24T22:52:27.275Z,10.50
2023-01-24T22:54:54.215Z,10.60
2023-01-24T22:57:22.287Z,10.60
2023-01-24T22:59:49.171Z,10.60
2023-01-24T23:02:16.017Z,10.60
2023-01-24T23:04:42.845Z,10.60
2023-01-24T23:07:10.045Z,10.50
2023-01-24T23:09:36.963Z,10.60
2023-01-24T23:12:23.950Z,10.60
2023-01-24T23:15:09.472Z,10.50
2023-01-24T23:17:36.478Z,10.50
2023-01-24T23:20:21.751Z,10.50
2023-01-24T23:22:48.602Z,10.50
2023-01-24T23:25:15.454Z,10.50
2023-01-24T23:27:42.267Z,10.50
2023-01-24T23:30:11.941Z,10.50
2023-01-24T23:32:45.409Z,10.50
2023-01-24T23:35:14.176Z,10.40
2023-01-24T23:37:41.751Z,10.40
2023-01-24T23:40:11.703Z,10.40
2023-01-24T23:42:38.595Z,10.50
2023-01-24T23:45:06.396Z,10.50
2023-01-24T23:47:33.378Z,10.60
2023-01-24T23:50:00.423Z,10.40
2023-01-24T23:52:27.305Z,10.40
2023-01-24T23:54:54.149Z,10.40
2023-01-24T23:57:20.977Z,10.30
2023-01-24T23:59:47.843Z,10.40
